sensor_id;sensor_type;location;lat;lon;timestamp;P1;durP1;ratioP1;P2;durP2;ratioP2
59649;SDS011;46162;57.568;25.814;2022-10-22T00:01:51;7.57;;;4.78;;
59649;SDS011;46162;57.568;25.814;2022-10-22T00:04:20;10.18;;;5.07;;
59649;SDS011;46162;57.568;25.814;2022-10-22T00:06:48;10.07;;;4.88;;
59649;SDS011;46162;57.568;25.814;2022-10-22T00:09:18;9.60;;;5.05;;
59649;SDS011;46162;57.568;25.814;2022-10-22T00:11:47;7.67;;;4.87;;
59649;SDS011;46162;57.568;25.814;2022-10-22T00:14:16;9.32;;;4.82;;
59649;SDS011;46162;57.568;25.814;2022-10-22T00:16:45;10.05;;;5.43;;
59649;SDS011;46162;57.568;25.814;2022-10-22T00:19:13;10.45;;;6.07;;
59649;SDS011;46162;57.568;25.814;2022-10-22T00:21:42;9.98;;;5.03;;
59649;SDS011;46162;57.568;25.814;2022-10-22T00:24:11;10.88;;;4.63;;
59649;SDS011;46162;57.568;25.814;2022-10-22T00:26:41;8.80;;;5.03;;
59649;SDS011;46162;57.568;25.814;2022-10-22T00:29:10;9.35;;;4.53;;
59649;SDS011;46162;57.568;25.814;2022-10-22T00:31:38;11.48;;;4.47;;
59649;SDS011;46162;57.568;25.814;2022-10-22T00:34:07;12.90;;;5.57;;
59649;SDS011;46162;57.568;25.814;2022-10-22T00:36:35;9.45;;;4.97;;
59649;SDS011;46162;57.568;25.814;2022-10-22T00:39:04;7.28;;;4.60;;
59649;SDS011;46162;57.568;25.814;2022-10-22T00:41:33;8.75;;;5.00;;
59649;SDS011;46162;57.568;25.814;2022-10-22T00:44:03;8.35;;;4.88;;
59649;SDS011;46162;57.568;25.814;2022-10-22T00:46:32;8.10;;;4.53;;
59649;SDS011;46162;57.568;25.814;2022-10-22T00:49:01;9.93;;;4.88;;
59649;SDS011;46162;57.568;25.814;2022-10-22T00:51:33;9.90;;;4.72;;
59649;SDS011;46162;57.568;25.814;2022-10-22T00:54:03;11.23;;;6.10;;
59649;SDS011;46162;57.568;25.814;2022-10-22T00:56:35;9.93;;;5.32;;
59649;SDS011;46162;57.568;25.814;2022-10-22T00:59:06;9.05;;;4.68;;
59649;SDS011;46162;57.568;25.814;2022-10-22T01:01:35;19.10;;;5.97;;
59649;SDS011;46162;57.568;25.814;2022-10-22T01:04:04;9.27;;;5.40;;
59649;SDS011;46162;57.568;25.814;2022-10-22T01:06:33;10.40;;;5.45;;
59649;SDS011;46162;57.568;25.814;2022-10-22T01:09:03;14.48;;;5.10;;
59649;SDS011;46162;57.568;25.814;2022-10-22T01:11:45;9.93;;;4.50;;
59649;SDS011;46162;57.568;25.814;2022-10-22T01:14:23;7.85;;;4.45;;
59649;SDS011;46162;57.568;25.814;2022-10-22T01:16:59;9.00;;;4.97;;
59649;SDS011;46162;57.568;25.814;2022-10-22T01:19:40;10.00;;;5.32;;
59649;SDS011;46162;57.568;25.814;2022-10-22T01:22:24;10.32;;;4.85;;
59649;SDS011;46162;57.568;25.814;2022-10-22T01:25:01;9.43;;;5.32;;
59649;SDS011;46162;57.568;25.814;2022-10-22T01:27:48;10.25;;;4.85;;
59649;SDS011;46162;57.568;25.814;2022-10-22T01:30:29;10.50;;;5.00;;
59649;SDS011;46162;57.568;25.814;2022-10-22T01:32:58;8.00;;;4.47;;
59649;SDS011;46162;57.568;25.814;2022-10-22T01:35:33;7.93;;;4.45;;
59649;SDS011;46162;57.568;25.814;2022-10-22T01:38:04;8.68;;;4.70;;
59649;SDS011;46162;57.568;25.814;2022-10-22T01:40:36;8.40;;;4.63;;
59649;SDS011;46162;57.568;25.814;2022-10-22T01:43:06;7.07;;;4.25;;
59649;SDS011;46162;57.568;25.814;2022-10-22T01:45:41;8.85;;;4.75;;
59649;SDS011;46162;57.568;25.814;2022-10-22T01:48:16;9.82;;;4.25;;
59649;SDS011;46162;57.568;25.814;2022-10-22T01:51:00;7.63;;;4.53;;
59649;SDS011;46162;57.568;25.814;2022-10-22T01:53:40;10.88;;;3.83;;
59649;SDS011;46162;57.568;25.814;2022-10-22T01:56:23;10.52;;;4.38;;
59649;SDS011;46162;57.568;25.814;2022-10-22T01:59:03;8.73;;;4.70;;
59649;SDS011;46162;57.568;25.814;2022-10-22T02:01:44;9.73;;;5.00;;
59649;SDS011;46162;57.568;25.814;2022-10-22T02:04:21;10.63;;;5.18;;
59649;SDS011;46162;57.568;25.814;2022-10-22T02:06:56;9.23;;;5.18;;
59649;SDS011;46162;57.568;25.814;2022-10-22T02:09:28;10.65;;;5.50;;
59649;SDS011;46162;57.568;25.814;2022-10-22T02:12:00;9.15;;;5.03;;
59649;SDS011;46162;57.568;25.814;2022-10-22T02:14:36;11.38;;;5.75;;
59649;SDS011;46162;57.568;25.814;2022-10-22T02:17:12;12.23;;;5.55;;
59649;SDS011;46162;57.568;25.814;2022-10-22T02:19:45;11.93;;;5.97;;
59649;SDS011;46162;57.568;25.814;2022-10-22T02:22:20;11.77;;;6.35;;
59649;SDS011;46162;57.568;25.814;2022-10-22T02:24:48;10.65;;;5.05;;
59649;SDS011;46162;57.568;25.814;2022-10-22T02:27:18;10.43;;;5.50;;
59649;SDS011;46162;57.568;25.814;2022-10-22T02:29:55;10.68;;;6.03;;
59649;SDS011;46162;57.568;25.814;2022-10-22T02:32:31;10.95;;;5.75;;
59649;SDS011;46162;57.568;25.814;2022-10-22T02:35:04;11.02;;;5.25;;
59649;SDS011;46162;57.568;25.814;2022-10-22T02:37:34;8.70;;;5.17;;
59649;SDS011;46162;57.568;25.814;2022-10-22T02:40:04;9.88;;;5.70;;
59649;SDS011;46162;57.568;25.814;2022-10-22T02:42:33;7.88;;;4.65;;
59649;SDS011;46162;57.568;25.814;2022-10-22T02:45:04;9.65;;;4.70;;
59649;SDS011;46162;57.568;25.814;2022-10-22T02:47:35;10.15;;;5.43;;
59649;SDS011;46162;57.568;25.814;2022-10-22T02:50:04;9.82;;;4.55;;
59649;SDS011;46162;57.568;25.814;2022-10-22T02:52:36;7.22;;;3.97;;
59649;SDS011;46162;57.568;25.814;2022-10-22T02:55:05;10.82;;;5.13;;
59649;SDS011;46162;57.568;25.814;2022-10-22T02:57:35;9.73;;;5.35;;
59649;SDS011;46162;57.568;25.814;2022-10-22T03:00:04;12.48;;;5.03;;
59649;SDS011;46162;57.568;25.814;2022-10-22T03:02:36;6.55;;;4.15;;
59649;SDS011;46162;57.568;25.814;2022-10-22T03:05:08;9.98;;;5.60;;
59649;SDS011;46162;57.568;25.814;2022-10-22T03:07:42;11.02;;;4.28;;
59649;SDS011;46162;57.568;25.814;2022-10-22T03:10:12;6.72;;;4.10;;
59649;SDS011;46162;57.568;25.814;2022-10-22T03:12:42;6.72;;;4.00;;
59649;SDS011;46162;57.568;25.814;2022-10-22T03:15:20;7.38;;;4.00;;
59649;SDS011;46162;57.568;25.814;2022-10-22T03:17:51;7.63;;;4.07;;
59649;SDS011;46162;57.568;25.814;2022-10-22T03:20:23;7.90;;;3.83;;
59649;SDS011;46162;57.568;25.814;2022-10-22T03:22:54;8.75;;;3.83;;
59649;SDS011;46162;57.568;25.814;2022-10-22T03:25:24;9.95;;;3.78;;
59649;SDS011;46162;57.568;25.814;2022-10-22T03:27:56;9.02;;;3.30;;
59649;SDS011;46162;57.568;25.814;2022-10-22T03:30:32;9.20;;;3.40;;
59649;SDS011;46162;57.568;25.814;2022-10-22T03:33:03;7.80;;;3.67;;
59649;SDS011;46162;57.568;25.814;2022-10-22T03:35:44;6.35;;;3.35;;
59649;SDS011;46162;57.568;25.814;2022-10-22T03:38:17;6.60;;;3.08;;
59649;SDS011;46162;57.568;25.814;2022-10-22T03:40:46;10.25;;;3.60;;
59649;SDS011;46162;57.568;25.814;2022-10-22T03:43:18;9.23;;;3.28;;
59649;SDS011;46162;57.568;25.814;2022-10-22T03:45:53;7.13;;;3.22;;
59649;SDS011;46162;57.568;25.814;2022-10-22T03:48:23;7.50;;;3.63;;
59649;SDS011;46162;57.568;25.814;2022-10-22T03:50:52;7.80;;;3.33;;
59649;SDS011;46162;57.568;25.814;2022-10-22T03:53:21;7.60;;;3.03;;
59649;SDS011;46162;57.568;25.814;2022-10-22T03:55:50;8.90;;;2.88;;
59649;SDS011;46162;57.568;25.814;2022-10-22T03:58:20;6.18;;;3.35;;
59649;SDS011;46162;57.568;25.814;2022-10-22T04:00:48;6.28;;;2.63;;
59649;SDS011;46162;57.568;25.814;2022-10-22T04:03:17;6.63;;;2.72;;
59649;SDS011;46162;57.568;25.814;2022-10-22T04:05:48;6.32;;;3.13;;
59649;SDS011;46162;57.568;25.814;2022-10-22T04:08:31;5.90;;;2.47;;
59649;SDS011;46162;57.568;25.814;2022-10-22T04:11:00;9.98;;;2.80;;
59649;SDS011;46162;57.568;25.814;2022-10-22T04:13:31;10.98;;;3.00;;
59649;SDS011;46162;57.568;25.814;2022-10-22T04:16:07;7.53;;;2.58;;
59649;SDS011;46162;57.568;25.814;2022-10-22T04:18:37;5.47;;;2.33;;
59649;SDS011;46162;57.568;25.814;2022-10-22T04:21:09;6.05;;;2.30;;
59649;SDS011;46162;57.568;25.814;2022-10-22T04:23:43;5.47;;;2.47;;
59649;SDS011;46162;57.568;25.814;2022-10-22T04:26:16;15.95;;;4.30;;
59649;SDS011;46162;57.568;25.814;2022-10-22T04:28:46;7.03;;;2.53;;
59649;SDS011;46162;57.568;25.814;2022-10-22T04:31:19;6.00;;;2.95;;
59649;SDS011;46162;57.568;25.814;2022-10-22T04:33:56;8.30;;;3.03;;
59649;SDS011;46162;57.568;25.814;2022-10-22T04:36:28;6.05;;;3.50;;
59649;SDS011;46162;57.568;25.814;2022-10-22T04:38:57;4.88;;;2.70;;
59649;SDS011;46162;57.568;25.814;2022-10-22T04:41:31;6.38;;;3.20;;
59649;SDS011;46162;57.568;25.814;2022-10-22T04:44:02;6.68;;;3.78;;
59649;SDS011;46162;57.568;25.814;2022-10-22T04:46:33;8.48;;;3.20;;
59649;SDS011;46162;57.568;25.814;2022-10-22T04:49:05;6.65;;;3.17;;
59649;SDS011;46162;57.568;25.814;2022-10-22T04:51:35;8.07;;;2.97;;
59649;SDS011;46162;57.568;25.814;2022-10-22T04:54:04;7.43;;;3.47;;
59649;SDS011;46162;57.568;25.814;2022-10-22T04:56:33;8.02;;;3.30;;
59649;SDS011;46162;57.568;25.814;2022-10-22T04:59:04;12.48;;;3.78;;
59649;SDS011;46162;57.568;25.814;2022-10-22T05:01:34;7.97;;;3.30;;
59649;SDS011;46162;57.568;25.814;2022-10-22T05:04:10;9.32;;;3.30;;
59649;SDS011;46162;57.568;25.814;2022-10-22T05:09:10;9.02;;;4.35;;
59649;SDS011;46162;57.568;25.814;2022-10-22T05:14:15;9.45;;;4.32;;
59649;SDS011;46162;57.568;25.814;2022-10-22T05:16:45;8.85;;;4.43;;
59649;SDS011;46162;57.568;25.814;2022-10-22T05:19:16;8.35;;;4.80;;
59649;SDS011;46162;57.568;25.814;2022-10-22T05:21:48;9.20;;;4.90;;
59649;SDS011;46162;57.568;25.814;2022-10-22T05:24:17;12.07;;;4.55;;
59649;SDS011;46162;57.568;25.814;2022-10-22T05:26:47;7.65;;;4.50;;
59649;SDS011;46162;57.568;25.814;2022-10-22T05:29:16;8.27;;;4.28;;
59649;SDS011;46162;57.568;25.814;2022-10-22T05:31:45;7.57;;;3.85;;
59649;SDS011;46162;57.568;25.814;2022-10-22T05:34:15;6.80;;;4.22;;
59649;SDS011;46162;57.568;25.814;2022-10-22T05:36:45;11.23;;;4.50;;
59649;SDS011;46162;57.568;25.814;2022-10-22T05:39:15;9.75;;;4.80;;
59649;SDS011;46162;57.568;25.814;2022-10-22T05:41:44;10.00;;;4.80;;
59649;SDS011;46162;57.568;25.814;2022-10-22T05:44:13;9.75;;;4.65;;
59649;SDS011;46162;57.568;25.814;2022-10-22T05:46:42;8.63;;;5.13;;
59649;SDS011;46162;57.568;25.814;2022-10-22T05:49:12;9.15;;;4.78;;
59649;SDS011;46162;57.568;25.814;2022-10-22T05:51:41;9.35;;;5.22;;
59649;SDS011;46162;57.568;25.814;2022-10-22T05:54:14;10.30;;;5.22;;
59649;SDS011;46162;57.568;25.814;2022-10-22T05:56:46;9.82;;;5.80;;
59649;SDS011;46162;57.568;25.814;2022-10-22T05:59:15;8.35;;;4.60;;
59649;SDS011;46162;57.568;25.814;2022-10-22T06:01:43;9.80;;;5.55;;
59649;SDS011;46162;57.568;25.814;2022-10-22T06:04:12;9.40;;;4.30;;
59649;SDS011;46162;57.568;25.814;2022-10-22T06:06:45;8.90;;;4.32;;
59649;SDS011;46162;57.568;25.814;2022-10-22T06:09:18;10.55;;;4.53;;
59649;SDS011;46162;57.568;25.814;2022-10-22T06:11:50;6.53;;;3.53;;
59649;SDS011;46162;57.568;25.814;2022-10-22T06:14:19;7.28;;;3.90;;
59649;SDS011;46162;57.568;25.814;2022-10-22T06:16:48;8.02;;;4.03;;
59649;SDS011;46162;57.568;25.814;2022-10-22T06:19:19;9.27;;;3.88;;
59649;SDS011;46162;57.568;25.814;2022-10-22T06:21:48;9.00;;;4.03;;
59649;SDS011;46162;57.568;25.814;2022-10-22T06:24:19;9.30;;;3.50;;
59649;SDS011;46162;57.568;25.814;2022-10-22T06:26:48;7.95;;;3.50;;
59649;SDS011;46162;57.568;25.814;2022-10-22T06:29:17;9.48;;;4.05;;
59649;SDS011;46162;57.568;25.814;2022-10-22T06:31:48;6.85;;;3.22;;
59649;SDS011;46162;57.568;25.814;2022-10-22T06:34:17;6.43;;;3.30;;
59649;SDS011;46162;57.568;25.814;2022-10-22T06:36:46;8.15;;;3.53;;
59649;SDS011;46162;57.568;25.814;2022-10-22T06:39:22;10.07;;;3.75;;
59649;SDS011;46162;57.568;25.814;2022-10-22T06:41:51;7.72;;;3.63;;
59649;SDS011;46162;57.568;25.814;2022-10-22T06:44:19;5.88;;;3.28;;
59649;SDS011;46162;57.568;25.814;2022-10-22T06:46:48;7.90;;;2.63;;
59649;SDS011;46162;57.568;25.814;2022-10-22T06:49:19;6.10;;;2.78;;
59649;SDS011;46162;57.568;25.814;2022-10-22T06:51:48;7.57;;;2.47;;
59649;SDS011;46162;57.568;25.814;2022-10-22T06:54:18;6.28;;;2.40;;
59649;SDS011;46162;57.568;25.814;2022-10-22T06:56:49;6.53;;;2.42;;
59649;SDS011;46162;57.568;25.814;2022-10-22T06:59:18;6.60;;;2.25;;
59649;SDS011;46162;57.568;25.814;2022-10-22T07:01:46;9.30;;;2.75;;
59649;SDS011;46162;57.568;25.814;2022-10-22T07:04:15;5.97;;;2.42;;
59649;SDS011;46162;57.568;25.814;2022-10-22T07:06:44;5.88;;;2.53;;
59649;SDS011;46162;57.568;25.814;2022-10-22T07:09:13;7.50;;;2.47;;
59649;SDS011;46162;57.568;25.814;2022-10-22T07:11:49;7.10;;;2.38;;
59649;SDS011;46162;57.568;25.814;2022-10-22T07:14:17;7.03;;;2.63;;
59649;SDS011;46162;57.568;25.814;2022-10-22T07:16:46;7.50;;;2.47;;
59649;SDS011;46162;57.568;25.814;2022-10-22T07:19:29;8.07;;;2.22;;
59649;SDS011;46162;57.568;25.814;2022-10-22T07:21:59;6.68;;;1.92;;
59649;SDS011;46162;57.568;25.814;2022-10-22T07:24:28;5.47;;;1.70;;
59649;SDS011;46162;57.568;25.814;2022-10-22T07:26:58;7.25;;;2.20;;
59649;SDS011;46162;57.568;25.814;2022-10-22T07:29:28;5.30;;;2.15;;
59649;SDS011;46162;57.568;25.814;2022-10-22T07:31:56;5.60;;;2.17;;
59649;SDS011;46162;57.568;25.814;2022-10-22T07:34:25;6.32;;;2.55;;
59649;SDS011;46162;57.568;25.814;2022-10-22T07:36:54;6.75;;;2.10;;
59649;SDS011;46162;57.568;25.814;2022-10-22T07:39:32;6.53;;;2.40;;
59649;SDS011;46162;57.568;25.814;2022-10-22T07:42:05;5.10;;;2.20;;
59649;SDS011;46162;57.568;25.814;2022-10-22T07:44:34;5.53;;;1.90;;
59649;SDS011;46162;57.568;25.814;2022-10-22T07:47:03;5.47;;;1.45;;
59649;SDS011;46162;57.568;25.814;2022-10-22T07:49:32;4.07;;;1.63;;
59649;SDS011;46162;57.568;25.814;2022-10-22T07:52:00;6.10;;;2.60;;
59649;SDS011;46162;57.568;25.814;2022-10-22T07:54:29;5.50;;;1.67;;
59649;SDS011;46162;57.568;25.814;2022-10-22T07:56:58;8.23;;;1.95;;
59649;SDS011;46162;57.568;25.814;2022-10-22T07:59:28;4.93;;;1.38;;
59649;SDS011;46162;57.568;25.814;2022-10-22T08:01:57;6.43;;;1.90;;
59649;SDS011;46162;57.568;25.814;2022-10-22T08:04:27;7.05;;;2.33;;
59649;SDS011;46162;57.568;25.814;2022-10-22T08:06:56;5.88;;;1.83;;
59649;SDS011;46162;57.568;25.814;2022-10-22T08:09:24;6.18;;;1.90;;
59649;SDS011;46162;57.568;25.814;2022-10-22T08:11:53;6.60;;;1.42;;
59649;SDS011;46162;57.568;25.814;2022-10-22T08:14:22;5.78;;;1.30;;
59649;SDS011;46162;57.568;25.814;2022-10-22T08:16:52;6.65;;;1.88;;
59649;SDS011;46162;57.568;25.814;2022-10-22T08:19:21;6.40;;;1.80;;
59649;SDS011;46162;57.568;25.814;2022-10-22T08:21:50;5.05;;;1.60;;
59649;SDS011;46162;57.568;25.814;2022-10-22T08:24:19;6.38;;;1.50;;
59649;SDS011;46162;57.568;25.814;2022-10-22T08:26:48;8.38;;;1.67;;
59649;SDS011;46162;57.568;25.814;2022-10-22T08:29:16;5.93;;;1.70;;
59649;SDS011;46162;57.568;25.814;2022-10-22T08:31:45;4.82;;;1.40;;
59649;SDS011;46162;57.568;25.814;2022-10-22T08:34:15;4.93;;;1.17;;
59649;SDS011;46162;57.568;25.814;2022-10-22T08:36:44;4.88;;;1.15;;
59649;SDS011;46162;57.568;25.814;2022-10-22T08:39:14;3.67;;;1.23;;
59649;SDS011;46162;57.568;25.814;2022-10-22T08:41:46;6.15;;;1.58;;
59649;SDS011;46162;57.568;25.814;2022-10-22T08:47:31;6.82;;;1.27;;
59649;SDS011;46162;57.568;25.814;2022-10-22T08:50:14;5.85;;;1.13;;
59649;SDS011;46162;57.568;25.814;2022-10-22T08:52:47;4.88;;;1.30;;
59649;SDS011;46162;57.568;25.814;2022-10-22T08:55:20;5.28;;;1.10;;
59649;SDS011;46162;57.568;25.814;2022-10-22T09:00:27;3.80;;;1.08;;
59649;SDS011;46162;57.568;25.814;2022-10-22T09:03:05;5.40;;;0.95;;
59649;SDS011;46162;57.568;25.814;2022-10-22T09:05:58;7.25;;;1.45;;
59649;SDS011;46162;57.568;25.814;2022-10-22T09:08:32;7.75;;;1.17;;
59649;SDS011;46162;57.568;25.814;2022-10-22T09:11:06;8.82;;;1.33;;
59649;SDS011;46162;57.568;25.814;2022-10-22T09:13:43;5.60;;;1.15;;
59649;SDS011;46162;57.568;25.814;2022-10-22T09:16:14;5.95;;;1.50;;
59649;SDS011;46162;57.568;25.814;2022-10-22T09:18:48;5.60;;;1.13;;
59649;SDS011;46162;57.568;25.814;2022-10-22T09:21:28;6.70;;;0.88;;
59649;SDS011;46162;57.568;25.814;2022-10-22T09:24:05;6.90;;;1.20;;
59649;SDS011;46162;57.568;25.814;2022-10-22T09:26:39;4.18;;;1.05;;
59649;SDS011;46162;57.568;25.814;2022-10-22T09:29:12;6.00;;;1.33;;
59649;SDS011;46162;57.568;25.814;2022-10-22T09:31:46;3.20;;;0.70;;
59649;SDS011;46162;57.568;25.814;2022-10-22T09:34:18;4.20;;;1.00;;
59649;SDS011;46162;57.568;25.814;2022-10-22T09:36:57;4.18;;;0.70;;
59649;SDS011;46162;57.568;25.814;2022-10-22T09:39:27;7.00;;;1.35;;
59649;SDS011;46162;57.568;25.814;2022-10-22T09:41:59;5.35;;;0.95;;
59649;SDS011;46162;57.568;25.814;2022-10-22T09:44:27;4.05;;;0.75;;
59649;SDS011;46162;57.568;25.814;2022-10-22T09:47:02;5.90;;;1.10;;
59649;SDS011;46162;57.568;25.814;2022-10-22T09:49:32;4.15;;;1.02;;
59649;SDS011;46162;57.568;25.814;2022-10-22T09:52:06;7.38;;;1.30;;
59649;SDS011;46162;57.568;25.814;2022-10-22T09:54:54;4.47;;;0.88;;
59649;SDS011;46162;57.568;25.814;2022-10-22T09:57:23;5.55;;;1.08;;
59649;SDS011;46162;57.568;25.814;2022-10-22T09:59:53;4.35;;;1.15;;
59649;SDS011;46162;57.568;25.814;2022-10-22T10:02:26;7.38;;;0.93;;
59649;SDS011;46162;57.568;25.814;2022-10-22T10:05:04;7.00;;;0.73;;
59649;SDS011;46162;57.568;25.814;2022-10-22T10:07:35;4.82;;;0.70;;
59649;SDS011;46162;57.568;25.814;2022-10-22T10:12:45;6.18;;;1.08;;
59649;SDS011;46162;57.568;25.814;2022-10-22T10:15:23;2.88;;;0.63;;
59649;SDS011;46162;57.568;25.814;2022-10-22T10:17:57;8.30;;;1.13;;
59649;SDS011;46162;57.568;25.814;2022-10-22T10:20:37;6.05;;;0.80;;
59649;SDS011;46162;57.568;25.814;2022-10-22T10:23:17;5.50;;;0.80;;
59649;SDS011;46162;57.568;25.814;2022-10-22T10:25:56;4.82;;;1.20;;
59649;SDS011;46162;57.568;25.814;2022-10-22T10:28:34;4.40;;;1.00;;
59649;SDS011;46162;57.568;25.814;2022-10-22T10:31:16;5.57;;;0.85;;
59649;SDS011;46162;57.568;25.814;2022-10-22T10:33:54;3.40;;;0.70;;
59649;SDS011;46162;57.568;25.814;2022-10-22T10:36:34;5.22;;;0.90;;
59649;SDS011;46162;57.568;25.814;2022-10-22T10:39:15;4.93;;;0.75;;
59649;SDS011;46162;57.568;25.814;2022-10-22T10:41:51;5.70;;;1.05;;
59649;SDS011;46162;57.568;25.814;2022-10-22T10:44:33;3.58;;;0.77;;
59649;SDS011;46162;57.568;25.814;2022-10-22T10:47:15;3.92;;;0.82;;
59649;SDS011;46162;57.568;25.814;2022-10-22T10:50:00;5.60;;;1.13;;
59649;SDS011;46162;57.568;25.814;2022-10-22T10:52:44;5.13;;;0.80;;
59649;SDS011;46162;57.568;25.814;2022-10-22T10:55:26;4.95;;;0.93;;
59649;SDS011;46162;57.568;25.814;2022-10-22T10:58:02;4.40;;;0.88;;
59649;SDS011;46162;57.568;25.814;2022-10-22T11:00:43;4.65;;;0.70;;
59649;SDS011;46162;57.568;25.814;2022-10-22T11:06:13;4.75;;;1.27;;
59649;SDS011;46162;57.568;25.814;2022-10-22T11:08:51;4.47;;;1.23;;
59649;SDS011;46162;57.568;25.814;2022-10-22T11:11:29;8.15;;;1.63;;
59649;SDS011;46162;57.568;25.814;2022-10-22T11:14:03;6.35;;;1.27;;
59649;SDS011;46162;57.568;25.814;2022-10-22T11:16:39;5.28;;;1.02;;
59649;SDS011;46162;57.568;25.814;2022-10-22T11:19:15;8.02;;;1.80;;
59649;SDS011;46162;57.568;25.814;2022-10-22T11:22:12;5.93;;;1.25;;
59649;SDS011;46162;57.568;25.814;2022-10-22T11:24:52;5.93;;;1.42;;
59649;SDS011;46162;57.568;25.814;2022-10-22T11:27:29;6.78;;;1.35;;
59649;SDS011;46162;57.568;25.814;2022-10-22T11:30:04;6.30;;;1.48;;
59649;SDS011;46162;57.568;25.814;2022-10-22T11:32:38;6.15;;;1.30;;
59649;SDS011;46162;57.568;25.814;2022-10-22T11:35:11;3.97;;;1.15;;
59649;SDS011;46162;57.568;25.814;2022-10-22T11:37:49;4.97;;;1.00;;
59649;SDS011;46162;57.568;25.814;2022-10-22T11:40:19;7.03;;;1.45;;
59649;SDS011;46162;57.568;25.814;2022-10-22T11:43:02;4.63;;;1.20;;
59649;SDS011;46162;57.568;25.814;2022-10-22T11:45:33;4.35;;;1.38;;
59649;SDS011;46162;57.568;25.814;2022-10-22T11:48:06;9.13;;;1.33;;
59649;SDS011;46162;57.568;25.814;2022-10-22T11:50:44;4.32;;;1.08;;
59649;SDS011;46162;57.568;25.814;2022-10-22T11:53:25;5.07;;;1.13;;
59649;SDS011;46162;57.568;25.814;2022-10-22T11:56:03;4.78;;;1.00;;
59649;SDS011;46162;57.568;25.814;2022-10-22T11:58:51;4.63;;;1.10;;
59649;SDS011;46162;57.568;25.814;2022-10-22T12:01:23;9.80;;;1.20;;
59649;SDS011;46162;57.568;25.814;2022-10-22T12:06:57;3.83;;;0.82;;
59649;SDS011;46162;57.568;25.814;2022-10-22T12:09:27;5.53;;;1.03;;
59649;SDS011;46162;57.568;25.814;2022-10-22T12:12:12;4.15;;;1.40;;
59649;SDS011;46162;57.568;25.814;2022-10-22T12:14:56;8.15;;;1.10;;
59649;SDS011;46162;57.568;25.814;2022-10-22T12:17:26;6.40;;;1.63;;
59649;SDS011;46162;57.568;25.814;2022-10-22T12:19:58;4.82;;;0.93;;
59649;SDS011;46162;57.568;25.814;2022-10-22T12:22:29;5.22;;;1.05;;
59649;SDS011;46162;57.568;25.814;2022-10-22T12:25:08;6.40;;;0.88;;
59649;SDS011;46162;57.568;25.814;2022-10-22T12:27:43;3.05;;;0.70;;
59649;SDS011;46162;57.568;25.814;2022-10-22T12:30:21;5.68;;;0.60;;
59649;SDS011;46162;57.568;25.814;2022-10-22T12:32:51;3.75;;;0.80;;
59649;SDS011;46162;57.568;25.814;2022-10-22T12:35:23;6.03;;;1.02;;
59649;SDS011;46162;57.568;25.814;2022-10-22T12:37:53;3.97;;;0.95;;
59649;SDS011;46162;57.568;25.814;2022-10-22T12:40:25;4.30;;;0.80;;
59649;SDS011;46162;57.568;25.814;2022-10-22T12:42:55;5.53;;;0.90;;
59649;SDS011;46162;57.568;25.814;2022-10-22T12:45:28;4.90;;;0.90;;
59649;SDS011;46162;57.568;25.814;2022-10-22T12:47:59;4.20;;;0.77;;
59649;SDS011;46162;57.568;25.814;2022-10-22T12:50:30;5.43;;;0.90;;
59649;SDS011;46162;57.568;25.814;2022-10-22T12:53:03;3.72;;;1.02;;
59649;SDS011;46162;57.568;25.814;2022-10-22T12:55:33;5.15;;;0.73;;
59649;SDS011;46162;57.568;25.814;2022-10-22T12:58:03;7.00;;;0.80;;
59649;SDS011;46162;57.568;25.814;2022-10-22T13:00:34;6.10;;;1.17;;
59649;SDS011;46162;57.568;25.814;2022-10-22T13:03:04;5.90;;;1.20;;
59649;SDS011;46162;57.568;25.814;2022-10-22T13:05:34;4.47;;;0.80;;
59649;SDS011;46162;57.568;25.814;2022-10-22T13:08:07;6.43;;;1.08;;
59649;SDS011;46162;57.568;25.814;2022-10-22T13:10:38;4.35;;;1.33;;
59649;SDS011;46162;57.568;25.814;2022-10-22T13:16:19;9.85;;;3.60;;
59649;SDS011;46162;57.568;25.814;2022-10-22T13:18:50;4.82;;;1.58;;
59649;SDS011;46162;57.568;25.814;2022-10-22T13:21:21;7.35;;;2.40;;
59649;SDS011;46162;57.568;25.814;2022-10-22T13:23:56;9.10;;;3.00;;
59649;SDS011;46162;57.568;25.814;2022-10-22T13:26:31;142.10;;;72.28;;
59649;SDS011;46162;57.568;25.814;2022-10-22T13:29:01;24.30;;;10.85;;
59649;SDS011;46162;57.568;25.814;2022-10-22T13:31:43;122.60;;;53.47;;
59649;SDS011;46162;57.568;25.814;2022-10-22T13:34:14;70.28;;;34.42;;
59649;SDS011;46162;57.568;25.814;2022-10-22T13:36:46;221.25;;;108.57;;
59649;SDS011;46162;57.568;25.814;2022-10-22T13:39:16;134.10;;;67.22;;
59649;SDS011;46162;57.568;25.814;2022-10-22T13:41:45;470.77;;;250.05;;
59649;SDS011;46162;57.568;25.814;2022-10-22T13:44:16;196.27;;;100.37;;
59649;SDS011;46162;57.568;25.814;2022-10-22T13:46:47;391.13;;;271.27;;
59649;SDS011;46162;57.568;25.814;2022-10-22T13:49:16;293.17;;;201.25;;
59649;SDS011;46162;57.568;25.814;2022-10-22T13:51:48;143.40;;;118.95;;
59649;SDS011;46162;57.568;25.814;2022-10-22T13:54:20;94.93;;;84.63;;
59649;SDS011;46162;57.568;25.814;2022-10-22T13:56:51;95.15;;;84.95;;
59649;SDS011;46162;57.568;25.814;2022-10-22T13:59:20;41.08;;;36.88;;
59649;SDS011;46162;57.568;25.814;2022-10-22T14:01:51;26.40;;;23.70;;
59649;SDS011;46162;57.568;25.814;2022-10-22T14:04:21;14.57;;;10.98;;
59649;SDS011;46162;57.568;25.814;2022-10-22T14:06:50;9.90;;;6.80;;
59649;SDS011;46162;57.568;25.814;2022-10-22T14:09:19;13.80;;;8.95;;
59649;SDS011;46162;57.568;25.814;2022-10-22T14:11:48;7.97;;;2.50;;
59649;SDS011;46162;57.568;25.814;2022-10-22T14:14:16;8.15;;;5.40;;
59649;SDS011;46162;57.568;25.814;2022-10-22T14:16:45;13.40;;;8.10;;
59649;SDS011;46162;57.568;25.814;2022-10-22T14:19:15;10.68;;;7.90;;
59649;SDS011;46162;57.568;25.814;2022-10-22T14:21:45;14.10;;;9.10;;
59649;SDS011;46162;57.568;25.814;2022-10-22T14:24:14;20.35;;;15.98;;
59649;SDS011;46162;57.568;25.814;2022-10-22T14:26:43;24.88;;;21.38;;
59649;SDS011;46162;57.568;25.814;2022-10-22T14:29:12;16.60;;;14.88;;
59649;SDS011;46162;57.568;25.814;2022-10-22T14:31:41;13.05;;;7.97;;
59649;SDS011;46162;57.568;25.814;2022-10-22T14:34:11;17.95;;;16.25;;
59649;SDS011;46162;57.568;25.814;2022-10-22T14:36:43;9.63;;;5.78;;
59649;SDS011;46162;57.568;25.814;2022-10-22T14:39:11;3.83;;;1.38;;
59649;SDS011;46162;57.568;25.814;2022-10-22T14:41:40;6.65;;;2.13;;
59649;SDS011;46162;57.568;25.814;2022-10-22T14:44:10;6.10;;;3.05;;
59649;SDS011;46162;57.568;25.814;2022-10-22T14:46:40;5.20;;;1.65;;
59649;SDS011;46162;57.568;25.814;2022-10-22T14:49:10;4.30;;;1.05;;
59649;SDS011;46162;57.568;25.814;2022-10-22T14:51:39;5.45;;;1.40;;
59649;SDS011;46162;57.568;25.814;2022-10-22T14:54:10;4.55;;;1.05;;
59649;SDS011;46162;57.568;25.814;2022-10-22T14:56:38;4.10;;;1.13;;
59649;SDS011;46162;57.568;25.814;2022-10-22T14:59:07;7.78;;;1.27;;
59649;SDS011;46162;57.568;25.814;2022-10-22T15:01:35;5.70;;;1.33;;
59649;SDS011;46162;57.568;25.814;2022-10-22T15:04:06;5.60;;;1.17;;
59649;SDS011;46162;57.568;25.814;2022-10-22T15:06:35;7.25;;;2.05;;
59649;SDS011;46162;57.568;25.814;2022-10-22T15:09:04;6.28;;;1.25;;
59649;SDS011;46162;57.568;25.814;2022-10-22T15:11:34;4.82;;;1.33;;
59649;SDS011;46162;57.568;25.814;2022-10-22T15:14:03;7.43;;;1.48;;
59649;SDS011;46162;57.568;25.814;2022-10-22T15:16:32;4.90;;;1.63;;
59649;SDS011;46162;57.568;25.814;2022-10-22T15:19:00;7.28;;;1.73;;
59649;SDS011;46162;57.568;25.814;2022-10-22T15:21:29;6.80;;;1.70;;
59649;SDS011;46162;57.568;25.814;2022-10-22T15:23:57;6.97;;;1.90;;